sensor_id;sensor_type;location;lat;lon;timestamp;temperature;humidity
43858;DHT22;29507;51.284;5.758;2022-07-17T00:00:42;12.80;99.90
43858;DHT22;29507;51.284;5.758;2022-07-17T00:03:13;12.90;99.90
43858;DHT22;29507;51.284;5.758;2022-07-17T00:05:40;12.80;99.90
43858;DHT22;29507;51.284;5.758;2022-07-17T00:08:06;12.90;99.90
43858;DHT22;29507;51.284;5.758;2022-07-17T00:10:36;12.80;99.90
43858;DHT22;29507;51.284;5.758;2022-07-17T00:13:02;12.80;99.90
43858;DHT22;29507;51.284;5.758;2022-07-17T00:15:28;12.80;99.90
43858;DHT22;29507;51.284;5.758;2022-07-17T00:17:54;12.70;99.90
43858;DHT22;29507;51.284;5.758;2022-07-17T00:20:20;12.60;99.90
43858;DHT22;29507;51.284;5.758;2022-07-17T00:22:46;12.60;99.90
43858;DHT22;29507;51.284;5.758;2022-07-17T00:25:12;12.60;99.90
43858;DHT22;29507;51.284;5.758;2022-07-17T00:27:39;12.50;99.90
43858;DHT22;29507;51.284;5.758;2022-07-17T00:30:06;12.40;99.90
43858;DHT22;29507;51.284;5.758;2022-07-17T00:32:34;12.30;99.90
43858;DHT22;29507;51.284;5.758;2022-07-17T00:35:00;12.30;99.90
43858;DHT22;29507;51.284;5.758;2022-07-17T00:37:26;12.20;99.90
43858;DHT22;29507;51.284;5.758;2022-07-17T00:39:52;12.10;99.90
43858;DHT22;29507;51.284;5.758;2022-07-17T00:42:19;12.10;99.90
43858;DHT22;29507;51.284;5.758;2022-07-17T00:44:45;12.00;99.90
43858;DHT22;29507;51.284;5.758;2022-07-17T00:47:18;12.10;99.90
43858;DHT22;29507;51.284;5.758;2022-07-17T00:49:45;12.00;99.90
43858;DHT22;29507;51.284;5.758;2022-07-17T00:52:13;12.00;99.90
43858;DHT22;29507;51.284;5.758;2022-07-17T00:54:40;11.90;99.90
43858;DHT22;29507;51.284;5.758;2022-07-17T00:57:08;12.00;99.90
43858;DHT22;29507;51.284;5.758;2022-07-17T00:59:34;11.90;99.90
43858;DHT22;29507;51.284;5.758;2022-07-17T01:02:03;11.90;99.90
43858;DHT22;29507;51.284;5.758;2022-07-17T01:04:29;11.90;99.90
43858;DHT22;29507;51.284;5.758;2022-07-17T01:06:55;11.90;99.90
43858;DHT22;29507;51.284;5.758;2022-07-17T01:09:21;11.90;99.90
43858;DHT22;29507;51.284;5.758;2022-07-17T01:11:46;11.90;99.90
43858;DHT22;29507;51.284;5.758;2022-07-17T01:14:12;11.90;99.90
43858;DHT22;29507;51.284;5.758;2022-07-17T01:16:39;11.90;99.90
43858;DHT22;29507;51.284;5.758;2022-07-17T01:19:07;11.80;99.90
43858;DHT22;29507;51.284;5.758;2022-07-17T01:21:42;11.70;99.90
43858;DHT22;29507;51.284;5.758;2022-07-17T01:24:08;11.70;99.90
43858;DHT22;29507;51.284;5.758;2022-07-17T01:26:34;11.70;99.90
43858;DHT22;29507;51.284;5.758;2022-07-17T01:29:00;11.70;99.90
43858;DHT22;29507;51.284;5.758;2022-07-17T01:31:25;11.80;99.90
43858;DHT22;29507;51.284;5.758;2022-07-17T01:33:53;11.70;99.90
43858;DHT22;29507;51.284;5.758;2022-07-17T01:36:23;11.70;99.90
43858;DHT22;29507;51.284;5.758;2022-07-17T01:38:49;11.60;99.90
43858;DHT22;29507;51.284;5.758;2022-07-17T01:41:15;11.50;99.90
43858;DHT22;29507;51.284;5.758;2022-07-17T01:43:41;11.50;99.90
43858;DHT22;29507;51.284;5.758;2022-07-17T01:46:06;11.50;99.90
43858;DHT22;29507;51.284;5.758;2022-07-17T01:48:32;11.40;99.90
43858;DHT22;29507;51.284;5.758;2022-07-17T01:50:58;11.40;99.90
43858;DHT22;29507;51.284;5.758;2022-07-17T01:53:23;11.30;99.90
43858;DHT22;29507;51.284;5.758;2022-07-17T01:55:49;11.30;99.90
43858;DHT22;29507;51.284;5.758;2022-07-17T01:58:14;11.30;99.90
43858;DHT22;29507;51.284;5.758;2022-07-17T02:00:40;11.40;99.90
43858;DHT22;29507;51.284;5.758;2022-07-17T02:03:06;11.40;99.90
43858;DHT22;29507;51.284;5.758;2022-07-17T02:05:32;11.40;99.90
43858;DHT22;29507;51.284;5.758;2022-07-17T02:07:57;11.30;99.90
43858;DHT22;29507;51.284;5.758;2022-07-17T02:10:23;11.30;99.90
43858;DHT22;29507;51.284;5.758;2022-07-17T02:12:49;11.30;99.90
43858;DHT22;29507;51.284;5.758;2022-07-17T02:15:14;11.20;99.90
43858;DHT22;29507;51.284;5.758;2022-07-17T02:17:41;11.10;99.90
43858;DHT22;29507;51.284;5.758;2022-07-17T02:20:08;11.10;99.90
43858;DHT22;29507;51.284;5.758;2022-07-17T02:22:35;11.00;99.90
43858;DHT22;29507;51.284;5.758;2022-07-17T02:25:01;11.00;99.90
43858;DHT22;29507;51.284;5.758;2022-07-17T02:27:26;11.00;99.90
43858;DHT22;29507;51.284;5.758;2022-07-17T02:29:52;10.90;99.90
43858;DHT22;29507;51.284;5.758;2022-07-17T02:32:17;10.90;99.90
43858;DHT22;29507;51.284;5.758;2022-07-17T02:34:43;10.90;99.90
43858;DHT22;29507;51.284;5.758;2022-07-17T02:37:08;10.90;99.90
43858;DHT22;29507;51.284;5.758;2022-07-17T02:39:35;10.90;99.90
43858;DHT22;29507;51.284;5.758;2022-07-17T02:45:05;10.90;99.90
43858;DHT22;29507;51.284;5.758;2022-07-17T02:47:34;10.80;99.90
43858;DHT22;29507;51.284;5.758;2022-07-17T02:50:00;10.80;99.90
43858;DHT22;29507;51.284;5.758;2022-07-17T02:52:28;10.70;99.90
43858;DHT22;29507;51.284;5.758;2022-07-17T02:54:54;10.70;99.90
43858;DHT22;29507;51.284;5.758;2022-07-17T02:57:20;10.60;99.90
43858;DHT22;29507;51.284;5.758;2022-07-17T02:59:46;10.50;99.90
43858;DHT22;29507;51.284;5.758;2022-07-17T03:02:14;10.50;99.90
43858;DHT22;29507;51.284;5.758;2022-07-17T03:04:43;10.60;99.90
43858;DHT22;29507;51.284;5.758;2022-07-17T03:07:08;10.50;99.90
43858;DHT22;29507;51.284;5.758;2022-07-17T03:09:37;10.40;99.90
43858;DHT22;29507;51.284;5.758;2022-07-17T03:12:03;10.40;99.90
43858;DHT22;29507;51.284;5.758;2022-07-17T03:14:28;10.30;99.90
43858;DHT22;29507;51.284;5.758;2022-07-17T03:16:54;10.20;99.90
43858;DHT22;29507;51.284;5.758;2022-07-17T03:19:20;10.10;99.90
43858;DHT22;29507;51.284;5.758;2022-07-17T03:21:45;10.00;99.90
43858;DHT22;29507;51.284;5.758;2022-07-17T03:24:11;10.00;99.90
43858;DHT22;29507;51.284;5.758;2022-07-17T03:26:40;10.00;99.90
43858;DHT22;29507;51.284;5.758;2022-07-17T03:29:05;10.00;99.90
43858;DHT22;29507;51.284;5.758;2022-07-17T03:31:34;10.00;99.90
43858;DHT22;29507;51.284;5.758;2022-07-17T03:34:05;10.10;99.90
43858;DHT22;29507;51.284;5.758;2022-07-17T03:36:31;10.10;99.90
43858;DHT22;29507;51.284;5.758;2022-07-17T03:38:59;10.10;99.90
43858;DHT22;29507;51.284;5.758;2022-07-17T03:41:25;10.20;99.90
43858;DHT22;29507;51.284;5.758;2022-07-17T03:43:51;10.30;99.90
43858;DHT22;29507;51.284;5.758;2022-07-17T03:46:17;10.40;99.90
43858;DHT22;29507;51.284;5.758;2022-07-17T03:48:43;10.40;99.90
43858;DHT22;29507;51.284;5.758;2022-07-17T03:51:14;10.40;99.90
43858;DHT22;29507;51.284;5.758;2022-07-17T03:53:40;10.30;99.90
43858;DHT22;29507;51.284;5.758;2022-07-17T03:56:06;10.30;99.90
43858;DHT22;29507;51.284;5.758;2022-07-17T03:58:32;10.40;99.90
43858;DHT22;29507;51.284;5.758;2022-07-17T04:00:58;10.50;99.90
43858;DHT22;29507;51.284;5.758;2022-07-17T04:03:24;10.50;99.90
43858;DHT22;29507;51.284;5.758;2022-07-17T04:05:49;10.60;99.90
43858;DHT22;29507;51.284;5.758;2022-07-17T04:08:15;10.60;99.90
43858;DHT22;29507;51.284;5.758;2022-07-17T04:10:41;10.60;99.90
43858;DHT22;29507;51.284;5.758;2022-07-17T04:13:10;10.60;99.90
43858;DHT22;29507;51.284;5.758;2022-07-17T04:15:36;10.70;99.90
43858;DHT22;29507;51.284;5.758;2022-07-17T04:18:21;10.70;99.90
43858;DHT22;29507;51.284;5.758;2022-07-17T04:20:50;10.80;99.90
43858;DHT22;29507;51.284;5.758;2022-07-17T04:23:16;10.80;99.90
43858;DHT22;29507;51.284;5.758;2022-07-17T04:25:42;10.90;99.90
43858;DHT22;29507;51.284;5.758;2022-07-17T04:28:08;10.90;99.90
43858;DHT22;29507;51.284;5.758;2022-07-17T04:30:34;10.90;99.90
43858;DHT22;29507;51.284;5.758;2022-07-17T04:33:00;10.90;99.90
43858;DHT22;29507;51.284;5.758;2022-07-17T04:35:29;10.90;99.90
43858;DHT22;29507;51.284;5.758;2022-07-17T04:37:54;11.00;99.90
43858;DHT22;29507;51.284;5.758;2022-07-17T04:40:21;11.00;99.90
43858;DHT22;29507;51.284;5.758;2022-07-17T04:42:46;11.10;99.90
43858;DHT22;29507;51.284;5.758;2022-07-17T04:45:15;11.10;99.90
43858;DHT22;29507;51.284;5.758;2022-07-17T04:47:41;11.20;99.90
43858;DHT22;29507;51.284;5.758;2022-07-17T04:50:08;11.30;99.90
43858;DHT22;29507;51.284;5.758;2022-07-17T04:52:36;11.40;99.90
43858;DHT22;29507;51.284;5.758;2022-07-17T04:55:03;11.40;99.90
43858;DHT22;29507;51.284;5.758;2022-07-17T04:57:28;11.50;99.90
43858;DHT22;29507;51.284;5.758;2022-07-17T04:59:54;11.50;99.90
43858;DHT22;29507;51.284;5.758;2022-07-17T05:02:28;11.60;99.90
43858;DHT22;29507;51.284;5.758;2022-07-17T05:04:56;11.70;99.90
43858;DHT22;29507;51.284;5.758;2022-07-17T05:07:25;11.70;99.90
43858;DHT22;29507;51.284;5.758;2022-07-17T05:09:51;11.70;99.90
43858;DHT22;29507;51.284;5.758;2022-07-17T05:12:17;11.80;99.90
43858;DHT22;29507;51.284;5.758;2022-07-17T05:14:42;11.90;99.90
43858;DHT22;29507;51.284;5.758;2022-07-17T05:17:11;12.00;99.90
43858;DHT22;29507;51.284;5.758;2022-07-17T05:19:37;12.00;99.90
43858;DHT22;29507;51.284;5.758;2022-07-17T05:22:03;12.10;99.90
43858;DHT22;29507;51.284;5.758;2022-07-17T05:24:32;12.20;99.90
43858;DHT22;29507;51.284;5.758;2022-07-17T05:26:59;12.30;99.90
43858;DHT22;29507;51.284;5.758;2022-07-17T05:29:25;12.30;99.90
43858;DHT22;29507;51.284;5.758;2022-07-17T05:31:51;12.40;99.90
43858;DHT22;29507;51.284;5.758;2022-07-17T05:34:30;12.50;99.90
43858;DHT22;29507;51.284;5.758;2022-07-17T05:37:03;12.50;99.90
43858;DHT22;29507;51.284;5.758;2022-07-17T05:39:28;12.60;99.90
43858;DHT22;29507;51.284;5.758;2022-07-17T05:41:54;12.70;99.90
43858;DHT22;29507;51.284;5.758;2022-07-17T05:44:22;12.70;99.90
43858;DHT22;29507;51.284;5.758;2022-07-17T05:46:48;12.80;99.90
43858;DHT22;29507;51.284;5.758;2022-07-17T05:49:13;12.90;99.90
43858;DHT22;29507;51.284;5.758;2022-07-17T05:51:44;13.10;99.90
43858;DHT22;29507;51.284;5.758;2022-07-17T05:54:13;13.70;99.90
43858;DHT22;29507;51.284;5.758;2022-07-17T05:56:46;14.90;99.90
43858;DHT22;29507;51.284;5.758;2022-07-17T05:59:20;16.00;99.90
43858;DHT22;29507;51.284;5.758;2022-07-17T06:01:50;16.70;99.90
43858;DHT22;29507;51.284;5.758;2022-07-17T06:04:16;17.40;99.90
43858;DHT22;29507;51.284;5.758;2022-07-17T06:06:45;18.30;99.90
43858;DHT22;29507;51.284;5.758;2022-07-17T06:09:13;18.40;98.70
43858;DHT22;29507;51.284;5.758;2022-07-17T06:11:38;18.80;98.10
43858;DHT22;29507;51.284;5.758;2022-07-17T06:14:22;19.20;94.30
43858;DHT22;29507;51.284;5.758;2022-07-17T06:16:50;19.50;90.70
43858;DHT22;29507;51.284;5.758;2022-07-17T06:19:16;19.70;90.00
43858;DHT22;29507;51.284;5.758;2022-07-17T06:21:42;19.80;87.60
43858;DHT22;29507;51.284;5.758;2022-07-17T06:24:10;19.80;86.00
43858;DHT22;29507;51.284;5.758;2022-07-17T06:26:36;19.90;87.10
43858;DHT22;29507;51.284;5.758;2022-07-17T06:29:02;20.10;85.00
43858;DHT22;29507;51.284;5.758;2022-07-17T06:31:27;20.50;83.80
43858;DHT22;29507;51.284;5.758;2022-07-17T06:33:53;21.00;82.90
43858;DHT22;29507;51.284;5.758;2022-07-17T06:36:19;21.50;79.70
43858;DHT22;29507;51.284;5.758;2022-07-17T06:38:47;21.80;78.00
43858;DHT22;29507;51.284;5.758;2022-07-17T06:41:13;22.10;76.60
43858;DHT22;29507;51.284;5.758;2022-07-17T06:43:39;22.00;76.00
43858;DHT22;29507;51.284;5.758;2022-07-17T06:46:04;22.20;75.30
43858;DHT22;29507;51.284;5.758;2022-07-17T06:48:30;22.40;74.80
43858;DHT22;29507;51.284;5.758;2022-07-17T06:50:55;22.80;72.60
43858;DHT22;29507;51.284;5.758;2022-07-17T06:53:21;23.10;71.70
43858;DHT22;29507;51.284;5.758;2022-07-17T06:55:47;23.60;70.20
43858;DHT22;29507;51.284;5.758;2022-07-17T06:58:15;23.80;69.40
43858;DHT22;29507;51.284;5.758;2022-07-17T07:00:41;24.10;68.20
43858;DHT22;29507;51.284;5.758;2022-07-17T07:03:07;24.30;67.30
43858;DHT22;29507;51.284;5.758;2022-07-17T07:05:36;24.40;67.50
43858;DHT22;29507;51.284;5.758;2022-07-17T07:08:02;24.70;66.00
43858;DHT22;29507;51.284;5.758;2022-07-17T07:10:28;24.70;66.10
43858;DHT22;29507;51.284;5.758;2022-07-17T07:12:53;24.60;66.20
43858;DHT22;29507;51.284;5.758;2022-07-17T07:15:19;24.90;64.90
43858;DHT22;29507;51.284;5.758;2022-07-17T07:17:44;25.00;64.50
43858;DHT22;29507;51.284;5.758;2022-07-17T07:20:10;25.40;63.50
43858;DHT22;29507;51.284;5.758;2022-07-17T07:22:36;25.40;63.00
43858;DHT22;29507;51.284;5.758;2022-07-17T07:25:03;25.20;62.90
43858;DHT22;29507;51.284;5.758;2022-07-17T07:27:29;24.80;62.60
43858;DHT22;29507;51.284;5.758;2022-07-17T07:30:02;24.70;62.00
43858;DHT22;29507;51.284;5.758;2022-07-17T07:32:28;24.50;61.90
43858;DHT22;29507;51.284;5.758;2022-07-17T07:34:59;24.60;61.60
43858;DHT22;29507;51.284;5.758;2022-07-17T07:37:28;24.40;61.20
43858;DHT22;29507;51.284;5.758;2022-07-17T07:40:13;24.60;62.50
43858;DHT22;29507;51.284;5.758;2022-07-17T07:42:44;25.10;62.20
43858;DHT22;29507;51.284;5.758;2022-07-17T07:45:13;25.20;61.00
43858;DHT22;29507;51.284;5.758;2022-07-17T07:47:43;25.10;60.80
43858;DHT22;29507;51.284;5.758;2022-07-17T07:50:09;25.00;62.20
43858;DHT22;29507;51.284;5.758;2022-07-17T07:52:37;25.30;62.20
43858;DHT22;29507;51.284;5.758;2022-07-17T07:55:06;25.50;62.10
43858;DHT22;29507;51.284;5.758;2022-07-17T07:57:35;26.00;61.90
43858;DHT22;29507;51.284;5.758;2022-07-17T08:00:09;25.80;60.80
43858;DHT22;29507;51.284;5.758;2022-07-17T08:02:36;25.70;61.70
43858;DHT22;29507;51.284;5.758;2022-07-17T08:05:05;25.70;61.10
43858;DHT22;29507;51.284;5.758;2022-07-17T08:07:31;25.50;60.90
43858;DHT22;29507;51.284;5.758;2022-07-17T08:09:57;25.80;59.60
43858;DHT22;29507;51.284;5.758;2022-07-17T08:12:27;26.00;59.50
43858;DHT22;29507;51.284;5.758;2022-07-17T08:14:52;26.20;59.90
43858;DHT22;29507;51.284;5.758;2022-07-17T08:17:18;26.60;59.70
43858;DHT22;29507;51.284;5.758;2022-07-17T08:19:45;26.70;58.00
43858;DHT22;29507;51.284;5.758;2022-07-17T08:22:16;27.10;58.40
43858;DHT22;29507;51.284;5.758;2022-07-17T08:24:42;27.50;57.20
43858;DHT22;29507;51.284;5.758;2022-07-17T08:27:07;27.60;56.70
43858;DHT22;29507;51.284;5.758;2022-07-17T08:29:36;28.10;55.70
43858;DHT22;29507;51.284;5.758;2022-07-17T08:32:02;28.20;54.40
43858;DHT22;29507;51.284;5.758;2022-07-17T08:34:27;27.90;54.30
43858;DHT22;29507;51.284;5.758;2022-07-17T08:36:53;27.50;54.90
43858;DHT22;29507;51.284;5.758;2022-07-17T08:39:19;27.30;56.40
43858;DHT22;29507;51.284;5.758;2022-07-17T08:41:44;27.30;56.70
43858;DHT22;29507;51.284;5.758;2022-07-17T08:44:17;27.50;55.60
43858;DHT22;29507;51.284;5.758;2022-07-17T08:46:43;27.40;56.00
43858;DHT22;29507;51.284;5.758;2022-07-17T08:49:22;28.00;56.00
43858;DHT22;29507;51.284;5.758;2022-07-17T08:51:48;28.30;54.90
43858;DHT22;29507;51.284;5.758;2022-07-17T08:54:14;28.40;54.80
43858;DHT22;29507;51.284;5.758;2022-07-17T08:56:43;28.40;54.70
43858;DHT22;29507;51.284;5.758;2022-07-17T08:59:09;28.30;54.60
43858;DHT22;29507;51.284;5.758;2022-07-17T09:01:42;28.30;54.70
43858;DHT22;29507;51.284;5.758;2022-07-17T09:04:11;28.00;53.60
43858;DHT22;29507;51.284;5.758;2022-07-17T09:06:37;27.50;54.10
43858;DHT22;29507;51.284;5.758;2022-07-17T09:09:08;27.20;53.80
43858;DHT22;29507;51.284;5.758;2022-07-17T09:11:59;27.20;54.30
43858;DHT22;29507;51.284;5.758;2022-07-17T09:14:40;27.00;53.60
43858;DHT22;29507;51.284;5.758;2022-07-17T09:17:29;27.10;53.90
43858;DHT22;29507;51.284;5.758;2022-07-17T09:19:54;27.00;54.40
43858;DHT22;29507;51.284;5.758;2022-07-17T09:22:22;26.90;55.10
43858;DHT22;29507;51.284;5.758;2022-07-17T09:24:51;27.10;54.70
43858;DHT22;29507;51.284;5.758;2022-07-17T09:30:03;27.30;54.50
43858;DHT22;29507;51.284;5.758;2022-07-17T09:32:33;27.60;54.70
43858;DHT22;29507;51.284;5.758;2022-07-17T09:35:00;27.90;54.70
43858;DHT22;29507;51.284;5.758;2022-07-17T09:37:29;27.90;52.80
43858;DHT22;29507;51.284;5.758;2022-07-17T09:39:58;27.90;53.40
43858;DHT22;29507;51.284;5.758;2022-07-17T09:42:32;28.10;54.00
43858;DHT22;29507;51.284;5.758;2022-07-17T09:45:12;28.10;54.60
43858;DHT22;29507;51.284;5.758;2022-07-17T09:47:38;28.20;53.60
43858;DHT22;29507;51.284;5.758;2022-07-17T09:50:30;28.10;54.00
43858;DHT22;29507;51.284;5.758;2022-07-17T09:52:57;28.60;53.70
43858;DHT22;29507;51.284;5.758;2022-07-17T09:55:29;28.90;52.30
43858;DHT22;29507;51.284;5.758;2022-07-17T09:57:58;28.50;50.70
43858;DHT22;29507;51.284;5.758;2022-07-17T10:00:47;28.20;51.80
43858;DHT22;29507;51.284;5.758;2022-07-17T10:03:20;28.20;51.00
43858;DHT22;29507;51.284;5.758;2022-07-17T10:05:45;28.60;51.40
43858;DHT22;29507;51.284;5.758;2022-07-17T10:08:12;28.90;51.70
43858;DHT22;29507;51.284;5.758;2022-07-17T10:10:39;29.50;50.30
43858;DHT22;29507;51.284;5.758;2022-07-17T10:13:05;29.10;49.70
43858;DHT22;29507;51.284;5.758;2022-07-17T10:15:30;28.90;50.00
43858;DHT22;29507;51.284;5.758;2022-07-17T10:18:04;28.90;50.10
43858;DHT22;29507;51.284;5.758;2022-07-17T10:20:30;29.00;50.70
43858;DHT22;29507;51.284;5.758;2022-07-17T10:22:55;29.10;50.30
43858;DHT22;29507;51.284;5.758;2022-07-17T10:25:24;29.10;49.90
43858;DHT22;29507;51.284;5.758;2022-07-17T10:27:58;28.90;48.80
43858;DHT22;29507;51.284;5.758;2022-07-17T10:30:25;28.60;48.60
43858;DHT22;29507;51.284;5.758;2022-07-17T10:33:04;28.50;50.00
43858;DHT22;29507;51.284;5.758;2022-07-17T10:35:46;27.90;50.50
43858;DHT22;29507;51.284;5.758;2022-07-17T10:38:14;28.50;51.40
43858;DHT22;29507;51.284;5.758;2022-07-17T10:40:41;28.80;49.60
43858;DHT22;29507;51.284;5.758;2022-07-17T10:43:09;28.80;50.20
43858;DHT22;29507;51.284;5.758;2022-07-17T10:45:43;28.50;48.20
43858;DHT22;29507;51.284;5.758;2022-07-17T10:48:17;28.40;50.60
43858;DHT22;29507;51.284;5.758;2022-07-17T10:50:53;28.60;48.70
43858;DHT22;29507;51.284;5.758;2022-07-17T10:53:32;29.10;45.70
43858;DHT22;29507;51.284;5.758;2022-07-17T10:56:00;29.40;46.70
43858;DHT22;29507;51.284;5.758;2022-07-17T10:58:36;29.70;48.10
43858;DHT22;29507;51.284;5.758;2022-07-17T11:01:19;30.10;47.30
43858;DHT22;29507;51.284;5.758;2022-07-17T11:03:46;29.80;48.30
43858;DHT22;29507;51.284;5.758;2022-07-17T11:08:57;30.50;46.70
43858;DHT22;29507;51.284;5.758;2022-07-17T11:14:26;30.70;48.40
43858;DHT22;29507;51.284;5.758;2022-07-17T11:17:00;31.00;48.20
43858;DHT22;29507;51.284;5.758;2022-07-17T11:19:31;30.90;48.40
43858;DHT22;29507;51.284;5.758;2022-07-17T11:21:58;31.00;48.10
43858;DHT22;29507;51.284;5.758;2022-07-17T11:24:34;30.70;47.60
43858;DHT22;29507;51.284;5.758;2022-07-17T11:27:00;30.60;46.90
43858;DHT22;29507;51.284;5.758;2022-07-17T11:29:26;30.90;48.00
43858;DHT22;29507;51.284;5.758;2022-07-17T11:31:55;31.00;46.90
43858;DHT22;29507;51.284;5.758;2022-07-17T11:34:24;30.60;46.30
43858;DHT22;29507;51.284;5.758;2022-07-17T11:36:51;30.80;47.50
43858;DHT22;29507;51.284;5.758;2022-07-17T11:39:23;31.30;46.80
43858;DHT22;29507;51.284;5.758;2022-07-17T11:41:51;31.80;46.10
43858;DHT22;29507;51.284;5.758;2022-07-17T11:44:21;32.20;44.70
43858;DHT22;29507;51.284;5.758;2022-07-17T11:46:48;32.20;44.60
43858;DHT22;29507;51.284;5.758;2022-07-17T11:49:36;32.10;44.80
43858;DHT22;29507;51.284;5.758;2022-07-17T11:57:14;31.00;46.30
43858;DHT22;29507;51.284;5.758;2022-07-17T11:59:39;31.20;46.20
43858;DHT22;29507;51.284;5.758;2022-07-17T12:02:10;31.90;46.70
43858;DHT22;29507;51.284;5.758;2022-07-17T12:04:51;32.30;46.00
43858;DHT22;29507;51.284;5.758;2022-07-17T12:07:17;32.20;45.50
43858;DHT22;29507;51.284;5.758;2022-07-17T12:09:43;31.70;45.30
43858;DHT22;29507;51.284;5.758;2022-07-17T12:12:26;32.00;45.30
43858;DHT22;29507;51.284;5.758;2022-07-17T12:14:52;32.70;46.60
43858;DHT22;29507;51.284;5.758;2022-07-17T12:17:25;32.90;45.00
43858;DHT22;29507;51.284;5.758;2022-07-17T12:20:06;33.10;45.00
43858;DHT22;29507;51.284;5.758;2022-07-17T12:22:42;33.20;45.70
43858;DHT22;29507;51.284;5.758;2022-07-17T12:25:08;33.50;45.40
43858;DHT22;29507;51.284;5.758;2022-07-17T12:27:34;33.20;45.00
43858;DHT22;29507;51.284;5.758;2022-07-17T12:29:59;33.20;45.40
43858;DHT22;29507;51.284;5.758;2022-07-17T12:32:28;33.40;44.90
43858;DHT22;29507;51.284;5.758;2022-07-17T12:34:54;33.30;44.20
43858;DHT22;29507;51.284;5.758;2022-07-17T12:37:21;33.20;44.50
43858;DHT22;29507;51.284;5.758;2022-07-17T12:39:48;33.20;44.70
43858;DHT22;29507;51.284;5.758;2022-07-17T12:42:15;33.00;45.00
43858;DHT22;29507;51.284;5.758;2022-07-17T12:44:41;32.70;45.60
43858;DHT22;29507;51.284;5.758;2022-07-17T12:47:11;32.70;45.20
43858;DHT22;29507;51.284;5.758;2022-07-17T12:49:36;32.60;44.50
43858;DHT22;29507;51.284;5.758;2022-07-17T12:52:02;32.50;46.10
43858;DHT22;29507;51.284;5.758;2022-07-17T12:54:28;32.50;45.80
43858;DHT22;29507;51.284;5.758;2022-07-17T12:56:55;32.30;45.70
43858;DHT22;29507;51.284;5.758;2022-07-17T12:59:23;32.70;44.60
43858;DHT22;29507;51.284;5.758;2022-07-17T13:01:49;33.00;44.40
43858;DHT22;29507;51.284;5.758;2022-07-17T13:04:15;33.40;43.90
43858;DHT22;29507;51.284;5.758;2022-07-17T13:06:49;33.80;42.40
43858;DHT22;29507;51.284;5.758;2022-07-17T13:09:15;33.70;42.60
43858;DHT22;29507;51.284;5.758;2022-07-17T13:11:42;33.40;43.20
43858;DHT22;29507;51.284;5.758;2022-07-17T13:14:08;33.50;42.40
43858;DHT22;29507;51.284;5.758;2022-07-17T13:16:38;33.40;41.80
43858;DHT22;29507;51.284;5.758;2022-07-17T13:19:04;33.30;42.40
43858;DHT22;29507;51.284;5.758;2022-07-17T13:21:30;33.40;41.50
43858;DHT22;29507;51.284;5.758;2022-07-17T13:23:56;33.30;40.30
43858;DHT22;29507;51.284;5.758;2022-07-17T13:26:22;33.00;41.10
43858;DHT22;29507;51.284;5.758;2022-07-17T13:28:50;33.30;41.80
43858;DHT22;29507;51.284;5.758;2022-07-17T13:31:30;33.00;41.10
43858;DHT22;29507;51.284;5.758;2022-07-17T13:33:55;33.40;42.70
43858;DHT22;29507;51.284;5.758;2022-07-17T13:36:21;34.00;41.90
43858;DHT22;29507;51.284;5.758;2022-07-17T13:38:47;34.50;42.10
43858;DHT22;29507;51.284;5.758;2022-07-17T13:41:13;35.00;42.50
43858;DHT22;29507;51.284;5.758;2022-07-17T13:43:38;35.30;41.90
43858;DHT22;29507;51.284;5.758;2022-07-17T13:46:05;35.20;42.50
43858;DHT22;29507;51.284;5.758;2022-07-17T13:48:30;34.60;41.50
43858;DHT22;29507;51.284;5.758;2022-07-17T13:50:56;34.50;41.90
43858;DHT22;29507;51.284;5.758;2022-07-17T13:53:21;34.50;41.80
43858;DHT22;29507;51.284;5.758;2022-07-17T13:55:47;34.60;41.60
43858;DHT22;29507;51.284;5.758;2022-07-17T13:58:15;34.50;41.90
43858;DHT22;29507;51.284;5.758;2022-07-17T14:00:41;33.90;41.40
43858;DHT22;29507;51.284;5.758;2022-07-17T14:03:07;33.70;41.80
43858;DHT22;29507;51.284;5.758;2022-07-17T14:05:35;33.50;41.40
43858;DHT22;29507;51.284;5.758;2022-07-17T14:08:01;33.50;41.90
43858;DHT22;29507;51.284;5.758;2022-07-17T14:10:26;33.80;41.50
43858;DHT22;29507;51.284;5.758;2022-07-17T14:12:55;33.80;40.70
43858;DHT22;29507;51.284;5.758;2022-07-17T14:15:21;33.80;40.60
43858;DHT22;29507;51.284;5.758;2022-07-17T14:17:47;33.70;40.30
43858;DHT22;29507;51.284;5.758;2022-07-17T14:20:12;33.50;40.20
43858;DHT22;29507;51.284;5.758;2022-07-17T14:22:41;32.90;40.40
43858;DHT22;29507;51.284;5.758;2022-07-17T14:25:06;32.50;41.00
43858;DHT22;29507;51.284;5.758;2022-07-17T14:27:32;32.10;40.70
43858;DHT22;29507;51.284;5.758;2022-07-17T14:30:01;32.40;41.70
43858;DHT22;29507;51.284;5.758;2022-07-17T14:32:27;32.70;41.10
43858;DHT22;29507;51.284;5.758;2022-07-17T14:34:55;32.50;40.90
43858;DHT22;29507;51.284;5.758;2022-07-17T14:37:22;32.30;40.80
43858;DHT22;29507;51.284;5.758;2022-07-17T14:39:48;32.10;40.00
43858;DHT22;29507;51.284;5.758;2022-07-17T14:42:13;31.70;40.10
43858;DHT22;29507;51.284;5.758;2022-07-17T14:44:39;31.50;41.20
43858;DHT22;29507;51.284;5.758;2022-07-17T14:47:08;31.50;41.80
43858;DHT22;29507;51.284;5.758;2022-07-17T14:49:36;31.40;42.50
43858;DHT22;29507;51.284;5.758;2022-07-17T14:52:02;31.00;43.10
43858;DHT22;29507;51.284;5.758;2022-07-17T14:54:31;30.80;43.90
43858;DHT22;29507;51.284;5.758;2022-07-17T14:56:56;30.80;43.90
43858;DHT22;29507;51.284;5.758;2022-07-17T14:59:24;30.90;43.90
43858;DHT22;29507;51.284;5.758;2022-07-17T15:01:52;30.80;43.80
43858;DHT22;29507;51.284;5.758;2022-07-17T15:04:18;30.80;44.30
43858;DHT22;29507;51.284;5.758;2022-07-17T15:06:44;30.80;43.80
43858;DHT22;29507;51.284;5.758;2022-07-17T15:09:11;30.90;43.70
43858;DHT22;29507;51.284;5.758;2022-07-17T15:11:38;30.80;44.20
43858;DHT22;29507;51.284;5.758;2022-07-17T15:14:03;30.90;44.00
43858;DHT22;29507;51.284;5.758;2022-07-17T15:16:29;30.90;43.50
43858;DHT22;29507;51.284;5.758;2022-07-17T15:18:55;30.60;43.70
43858;DHT22;29507;51.284;5.758;2022-07-17T15:21:21;30.80;42.20
43858;DHT22;29507;51.284;5.758;2022-07-17T15:23:50;30.80;41.70
43858;DHT22;29507;51.284;5.758;2022-07-17T15:26:20;30.60;41.70
43858;DHT22;29507;51.284;5.758;2022-07-17T15:28:49;30.30;42.50
43858;DHT22;29507;51.284;5.758;2022-07-17T15:31:15;30.10;42.90
43858;DHT22;29507;51.284;5.758;2022-07-17T15:33:40;30.10;44.60
43858;DHT22;29507;51.284;5.758;2022-07-17T15:36:09;30.00;43.80
43858;DHT22;29507;51.284;5.758;2022-07-17T15:38:36;29.80;44.10
43858;DHT22;29507;51.284;5.758;2022-07-17T15:41:08;29.90;43.60
43858;DHT22;29507;51.284;5.758;2022-07-17T15:43:34;29.70;44.10
43858;DHT22;29507;51.284;5.758;2022-07-17T15:46:02;30.00;44.60
43858;DHT22;29507;51.284;5.758;2022-07-17T15:48:29;30.10;44.80
43858;DHT22;29507;51.284;5.758;2022-07-17T15:50:57;30.20;44.60